createdAt,value
2022-10-26T00:01:44.188Z,0.67
2022-10-26T00:03:52.656Z,0.63
2022-10-26T00:06:05.207Z,0.60
2022-10-26T00:08:14.859Z,0.57
2022-10-26T00:10:27.187Z,0.77
2022-10-26T00:12:37.968Z,0.60
2022-10-26T00:14:46.372Z,0.70
2022-10-26T00:16:54.941Z,0.70
2022-10-26T00:19:03.375Z,0.60
2022-10-26T00:21:12.627Z,0.60
2022-10-26T00:23:21.134Z,0.70
2022-10-26T00:25:30.919Z,0.77
2022-10-26T00:27:40.557Z,0.90
2022-10-26T00:29:49.008Z,0.80
2022-10-26T00:31:57.443Z,0.70
2022-10-26T00:34:05.847Z,0.73
2022-10-26T00:36:17.022Z,0.90
2022-10-26T00:38:25.532Z,0.63
2022-10-26T00:40:35.528Z,0.67
2022-10-26T00:42:43.927Z,0.90
2022-10-26T00:45:01.227Z,0.70
2022-10-26T00:47:11.319Z,0.70
2022-10-26T00:49:22.038Z,0.70
2022-10-26T00:51:33.843Z,0.80
2022-10-26T00:53:42.488Z,0.80
2022-10-26T00:55:54.461Z,0.87
2022-10-26T00:58:04.265Z,1.00
2022-10-26T01:00:13.235Z,0.90
2022-10-26T01:02:21.828Z,0.77
2022-10-26T01:04:30.269Z,0.90
2022-10-26T01:06:39.366Z,0.90
2022-10-26T01:08:48.455Z,0.70
2022-10-26T01:10:58.472Z,1.10
2022-10-26T01:13:07.709Z,0.90
2022-10-26T01:15:16.198Z,0.90
2022-10-26T01:17:32.534Z,0.73
2022-10-26T01:20:04.374Z,0.80
2022-10-26T01:22:14.440Z,0.60
2022-10-26T01:24:25.460Z,0.70
2022-10-26T01:26:49.096Z,0.60
2022-10-26T01:29:08.993Z,0.70
2022-10-26T01:31:23.821Z,0.97
2022-10-26T01:33:35.523Z,0.50
2022-10-26T01:35:46.517Z,0.73
2022-10-26T01:37:56.791Z,0.70
2022-10-26T01:40:08.651Z,0.60
2022-10-26T01:42:18.662Z,0.70
2022-10-26T01:44:29.566Z,0.67
2022-10-26T01:46:41.310Z,0.73
2022-10-26T01:48:52.603Z,0.60
2022-10-26T01:51:01.471Z,0.70
2022-10-26T01:53:13.533Z,0.80
2022-10-26T01:55:42.478Z,0.80
2022-10-26T01:57:58.895Z,0.80
2022-10-26T02:00:09.632Z,0.70
2022-10-26T02:02:31.584Z,0.73
2022-10-26T02:04:43.401Z,0.80
2022-10-26T02:06:59.499Z,0.50
2022-10-26T02:09:10.334Z,0.40
2022-10-26T02:11:25.371Z,0.40
2022-10-26T02:13:35.874Z,0.40
2022-10-26T02:15:47.462Z,0.40
2022-10-26T02:18:00.798Z,0.50
2022-10-26T02:20:10.958Z,0.40
2022-10-26T02:22:21.677Z,0.40
2022-10-26T02:24:31.304Z,0.40
2022-10-26T02:26:41.692Z,0.27
2022-10-26T02:28:52.656Z,0.30
2022-10-26T02:31:02.896Z,0.30
2022-10-26T02:33:14.443Z,0.40
2022-10-26T02:35:24.448Z,0.30
2022-10-26T02:37:34.060Z,0.30
2022-10-26T02:39:42.808Z,0.30
2022-10-26T02:41:52.603Z,0.40
2022-10-26T02:44:02.419Z,0.40
2022-10-26T02:46:13.091Z,0.30
2022-10-26T02:48:23.361Z,0.30
2022-10-26T02:50:35.255Z,0.30
2022-10-26T02:52:46.765Z,0.33
2022-10-26T02:54:59.599Z,0.37
2022-10-26T02:57:13.720Z,0.30
2022-10-26T02:59:23.453Z,0.40
2022-10-26T03:01:33.069Z,0.40
2022-10-26T03:03:42.982Z,0.30
2022-10-26T03:05:51.466Z,0.30
2022-10-26T03:08:03.308Z,0.30
2022-10-26T03:10:12.320Z,0.43
2022-10-26T03:12:21.102Z,0.40
2022-10-26T03:14:29.588Z,0.50
2022-10-26T03:16:38.123Z,0.40
2022-10-26T03:18:48.451Z,0.30
2022-10-26T03:20:56.842Z,0.40
2022-10-26T03:23:05.539Z,0.50
2022-10-26T03:25:15.662Z,0.50
2022-10-26T03:27:24.191Z,0.40
2022-10-26T03:29:32.671Z,0.40
2022-10-26T03:31:41.072Z,0.50
2022-10-26T03:33:50.844Z,0.40
2022-10-26T03:35:59.419Z,0.40
2022-10-26T03:38:07.987Z,0.40
2022-10-26T03:40:18.298Z,0.50
2022-10-26T03:42:28.033Z,0.50
2022-10-26T03:44:36.467Z,0.40
2022-10-26T03:46:44.865Z,0.40
2022-10-26T03:48:56.767Z,0.40
2022-10-26T03:51:05.316Z,0.47
2022-10-26T03:53:13.746Z,0.47
2022-10-26T03:55:22.245Z,0.40
2022-10-26T03:57:30.681Z,0.53
2022-10-26T03:59:39.101Z,0.50
2022-10-26T04:01:47.553Z,0.40
2022-10-26T04:03:57.739Z,0.50
2022-10-26T04:06:06.372Z,0.47
2022-10-26T04:08:17.304Z,0.40
2022-10-26T04:10:26.360Z,0.60
2022-10-26T04:12:34.778Z,0.60
2022-10-26T04:14:43.176Z,0.50
2022-10-26T04:16:51.631Z,0.60
2022-10-26T04:19:01.413Z,0.50
2022-10-26T04:21:12.611Z,0.50
2022-10-26T04:23:21.727Z,0.60
2022-10-26T04:25:32.957Z,0.73
2022-10-26T04:27:42.020Z,0.80
2022-10-26T04:29:50.437Z,0.60
2022-10-26T04:31:59.935Z,0.60
2022-10-26T04:34:09.742Z,0.60
2022-10-26T04:36:18.175Z,0.63
2022-10-26T04:38:26.623Z,0.57
2022-10-26T04:40:36.144Z,0.57
2022-10-26T04:42:44.924Z,0.50
2022-10-26T04:44:53.773Z,0.50
2022-10-26T04:47:02.250Z,0.60
2022-10-26T04:49:12.417Z,0.70
2022-10-26T04:51:20.866Z,0.87
2022-10-26T04:53:29.643Z,0.77
2022-10-26T04:55:38.125Z,0.53
2022-10-26T04:57:47.722Z,0.60
2022-10-26T04:59:56.340Z,1.07
2022-10-26T05:02:04.855Z,0.80
2022-10-26T05:04:18.231Z,0.60
2022-10-26T05:06:28.003Z,0.60
2022-10-26T05:08:36.469Z,0.70
2022-10-26T05:10:44.922Z,0.70
2022-10-26T05:12:53.869Z,0.70
2022-10-26T05:15:05.046Z,0.70
2022-10-26T05:17:16.254Z,0.70
2022-10-26T05:19:26.067Z,0.80
2022-10-26T05:21:34.610Z,0.70
2022-10-26T05:23:43.146Z,0.80
2022-10-26T05:25:51.863Z,0.80
2022-10-26T05:28:00.367Z,0.80
2022-10-26T05:30:09.444Z,0.77
2022-10-26T05:32:18.141Z,1.20
2022-10-26T05:34:28.335Z,0.67
2022-10-26T05:36:36.717Z,0.50
2022-10-26T05:38:45.160Z,0.73
2022-10-26T05:40:54.198Z,0.60
2022-10-26T05:43:02.666Z,1.70
2022-10-26T05:45:11.982Z,1.53
2022-10-26T05:47:23.607Z,0.87
2022-10-26T05:49:33.635Z,1.00
2022-10-26T05:51:42.466Z,0.83
2022-10-26T05:53:54.431Z,1.60
2022-10-26T05:56:05.027Z,0.70
2022-10-26T05:58:16.642Z,1.30
2022-10-26T06:00:25.886Z,0.60
2022-10-26T06:02:38.712Z,0.80
2022-10-26T06:04:49.274Z,0.80
2022-10-26T06:06:58.655Z,0.70
2022-10-26T06:09:07.409Z,0.80
2022-10-26T06:11:16.259Z,1.17
2022-10-26T06:13:25.155Z,0.70
2022-10-26T06:15:34.650Z,0.40
2022-10-26T06:17:49.170Z,0.50
2022-10-26T06:20:04.833Z,0.40
2022-10-26T06:22:19.230Z,0.50
2022-10-26T06:24:31.418Z,0.50
2022-10-26T06:26:43.392Z,0.67
2022-10-26T06:28:56.148Z,0.40
2022-10-26T06:31:04.994Z,0.50
2022-10-26T06:33:25.030Z,0.40
2022-10-26T06:35:45.248Z,0.40
2022-10-26T06:37:54.668Z,0.40
2022-10-26T06:40:03.275Z,0.47
2022-10-26T06:42:12.725Z,0.50
2022-10-26T06:44:25.175Z,0.43
2022-10-26T06:46:38.681Z,0.40
2022-10-26T06:48:51.691Z,0.50
2022-10-26T06:51:01.871Z,0.47
2022-10-26T06:53:15.780Z,0.37
2022-10-26T06:55:26.806Z,0.50
2022-10-26T06:57:36.848Z,0.40
2022-10-26T06:59:46.927Z,0.50
2022-10-26T07:01:55.423Z,0.43
2022-10-26T07:04:03.916Z,0.60
2022-10-26T07:06:13.799Z,0.50
2022-10-26T07:08:22.284Z,0.67
2022-10-26T07:10:31.070Z,0.40
2022-10-26T07:12:42.962Z,0.70
2022-10-26T07:14:51.514Z,0.80
2022-10-26T07:17:00.009Z,0.83
2022-10-26T07:19:08.479Z,0.70
2022-10-26T07:21:18.424Z,0.90
2022-10-26T07:23:26.954Z,0.83
2022-10-26T07:25:38.990Z,1.10
2022-10-26T07:27:49.954Z,1.07
2022-10-26T07:29:58.906Z,1.10
2022-10-26T07:32:07.653Z,1.00
2022-10-26T07:34:16.196Z,1.10
2022-10-26T07:36:25.979Z,1.00
2022-10-26T07:38:34.513Z,1.10
2022-10-26T07:40:42.981Z,1.73
2022-10-26T07:42:52.081Z,1.20
2022-10-26T07:45:00.676Z,1.47
2022-10-26T07:47:09.060Z,1.40
2022-10-26T07:49:19.567Z,1.13
2022-10-26T07:51:29.914Z,1.60
2022-10-26T07:53:38.378Z,1.40
2022-10-26T07:55:54.096Z,1.57
2022-10-26T07:58:04.733Z,1.20
2022-10-26T08:00:13.750Z,0.87
2022-10-26T08:02:22.304Z,1.23
2022-10-26T08:04:30.722Z,1.30
2022-10-26T08:06:40.866Z,1.50
2022-10-26T08:08:49.286Z,1.57
2022-10-26T08:10:57.692Z,1.40
2022-10-26T08:13:06.156Z,1.70
2022-10-26T08:15:14.647Z,1.50
2022-10-26T08:17:23.076Z,1.60
2022-10-26T08:19:31.544Z,1.03
2022-10-26T08:21:41.340Z,1.23
2022-10-26T08:23:49.977Z,0.83
2022-10-26T08:26:00.007Z,1.20
2022-10-26T08:28:08.399Z,0.80
2022-10-26T08:30:16.934Z,0.80
2022-10-26T08:32:25.536Z,0.80
2022-10-26T08:34:34.141Z,0.60
2022-10-26T08:36:44.372Z,0.80
2022-10-26T08:38:53.598Z,0.83
2022-10-26T08:41:07.656Z,0.77
2022-10-26T08:43:20.925Z,0.60
2022-10-26T08:45:36.635Z,0.90
2022-10-26T08:47:49.289Z,0.90
2022-10-26T08:50:00.400Z,1.00
2022-10-26T08:52:13.477Z,0.90
2022-10-26T08:54:25.372Z,1.00
2022-10-26T08:56:37.793Z,0.90
2022-10-26T08:58:50.137Z,1.00
2022-10-26T09:00:58.564Z,0.80
2022-10-26T09:03:13.528Z,0.90
2022-10-26T09:05:25.129Z,0.77
2022-10-26T09:07:38.735Z,0.80
2022-10-26T09:09:54.145Z,0.60
2022-10-26T09:12:06.876Z,0.90
2022-10-26T09:14:19.527Z,1.00
2022-10-26T09:16:29.907Z,1.10
2022-10-26T09:18:48.235Z,1.10
2022-10-26T09:21:13.921Z,0.83
2022-10-26T09:23:39.714Z,1.20
2022-10-26T09:25:50.713Z,1.70
2022-10-26T09:28:02.554Z,1.60
2022-10-26T09:30:15.603Z,1.50
2022-10-26T09:32:27.272Z,1.47
2022-10-26T09:34:40.100Z,1.77
2022-10-26T09:36:48.536Z,1.63
2022-10-26T09:39:00.041Z,1.67
2022-10-26T09:41:14.055Z,1.37
2022-10-26T09:43:25.666Z,1.53
2022-10-26T09:45:35.740Z,1.80
2022-10-26T09:47:47.126Z,1.20
2022-10-26T09:49:58.052Z,1.40
2022-10-26T09:52:06.495Z,1.40
2022-10-26T09:54:18.676Z,1.30
2022-10-26T09:56:28.087Z,1.17
2022-10-26T09:58:42.352Z,1.13
2022-10-26T10:00:50.863Z,1.20
2022-10-26T10:02:59.945Z,1.00
2022-10-26T10:07:58.204Z,1.13
2022-10-26T10:10:17.102Z,1.30
2022-10-26T10:12:29.357Z,0.90
2022-10-26T10:14:40.791Z,0.93
2022-10-26T10:16:53.899Z,1.00
2022-10-26T10:19:03.156Z,0.70
2022-10-26T10:21:12.104Z,0.73
2022-10-26T10:23:27.262Z,0.90
2022-10-26T10:25:38.268Z,0.77
2022-10-26T10:27:54.688Z,0.80
2022-10-26T10:30:16.069Z,0.60
2022-10-26T10:32:25.808Z,0.80
2022-10-26T10:34:36.177Z,0.80
2022-10-26T10:36:44.680Z,0.73
2022-10-26T10:38:54.256Z,0.70
2022-10-26T10:41:09.033Z,0.70
2022-10-26T10:43:17.763Z,0.70
2022-10-26T10:45:27.017Z,0.60
2022-10-26T10:47:36.534Z,0.97
2022-10-26T10:49:52.367Z,0.80
2022-10-26T10:52:03.669Z,0.40
2022-10-26T10:54:21.671Z,0.60
2022-10-26T10:56:42.947Z,0.57
2022-10-26T10:58:55.528Z,0.70
2022-10-26T11:01:04.343Z,0.57
2022-10-26T11:03:19.208Z,0.60
2022-10-26T11:05:43.392Z,0.60
2022-10-26T11:07:55.919Z,0.70
2022-10-26T11:10:08.317Z,0.60
2022-10-26T11:12:20.583Z,0.60
2022-10-26T11:14:31.454Z,0.90
2022-10-26T11:16:42.771Z,0.70
2022-10-26T11:18:54.362Z,0.50
2022-10-26T11:21:04.648Z,0.60
2022-10-26T11:23:14.946Z,0.77
2022-10-26T11:25:27.145Z,1.00
2022-10-26T11:27:41.699Z,0.70
2022-10-26T11:29:54.571Z,1.10
2022-10-26T11:32:05.644Z,0.80
2022-10-26T11:34:22.636Z,0.87
2022-10-26T11:36:32.436Z,0.87
2022-10-26T11:38:55.938Z,0.87
2022-10-26T11:41:08.256Z,1.03
2022-10-26T11:43:20.887Z,0.90
2022-10-26T11:45:30.895Z,1.07
2022-10-26T11:47:43.043Z,0.90
2022-10-26T11:49:54.197Z,0.90
2022-10-26T11:52:06.306Z,0.90
2022-10-26T11:54:18.214Z,0.87
2022-10-26T11:56:29.779Z,0.90
2022-10-26T11:58:40.141Z,0.70
2022-10-26T12:00:51.223Z,0.80
2022-10-26T12:03:03.479Z,0.70
2022-10-26T12:05:20.721Z,0.80
2022-10-26T12:07:31.710Z,0.70
2022-10-26T12:09:41.632Z,0.90
2022-10-26T12:11:52.759Z,0.87
2022-10-26T12:14:05.356Z,0.83
2022-10-26T12:16:20.257Z,0.87
2022-10-26T12:18:54.152Z,1.00
2022-10-26T12:21:03.730Z,1.00
2022-10-26T12:23:19.044Z,0.90
2022-10-26T12:25:36.672Z,1.00
2022-10-26T12:27:53.296Z,0.93
2022-10-26T12:30:17.225Z,0.70
2022-10-26T12:32:50.256Z,0.80
2022-10-26T12:35:01.395Z,0.80
2022-10-26T12:37:24.036Z,0.67
2022-10-26T12:39:33.239Z,0.60
2022-10-26T12:41:42.303Z,0.73
2022-10-26T12:43:50.766Z,0.73
2022-10-26T12:46:31.321Z,1.00
2022-10-26T12:48:42.007Z,0.80
2022-10-26T12:50:51.926Z,1.00
2022-10-26T12:53:01.546Z,0.87
2022-10-26T12:55:28.517Z,1.00
2022-10-26T12:57:42.666Z,1.10
2022-10-26T12:59:53.932Z,1.00
2022-10-26T13:02:31.415Z,0.97
2022-10-26T13:05:06.055Z,0.90
2022-10-26T13:07:26.005Z,1.00
2022-10-26T13:09:34.841Z,1.27
2022-10-26T13:11:47.672Z,1.23
2022-10-26T13:13:57.190Z,0.90
2022-10-26T13:16:06.365Z,1.50
2022-10-26T13:18:18.138Z,1.20
2022-10-26T13:20:26.665Z,1.57
2022-10-26T13:22:47.401Z,1.50
2022-10-26T13:24:59.344Z,1.17
2022-10-26T13:27:26.628Z,1.37
2022-10-26T13:29:35.428Z,1.13
2022-10-26T13:32:00.374Z,1.43
2022-10-26T13:34:12.874Z,1.10
2022-10-26T13:36:27.400Z,1.20
2022-10-26T13:38:38.942Z,1.63
2022-10-26T13:40:48.082Z,1.20
2022-10-26T13:42:57.552Z,1.40
2022-10-26T13:45:07.838Z,1.20
2022-10-26T13:47:18.370Z,1.10
2022-10-26T13:49:29.136Z,1.20
2022-10-26T13:51:42.047Z,1.07
2022-10-26T13:53:53.998Z,1.30
2022-10-26T13:56:05.201Z,1.30
2022-10-26T13:58:19.301Z,1.43
2022-10-26T14:00:27.886Z,1.40
2022-10-26T14:02:36.481Z,1.70
2022-10-26T14:04:47.847Z,1.60
2022-10-26T14:06:57.008Z,1.40
2022-10-26T14:09:08.403Z,1.47
2022-10-26T14:11:19.044Z,1.27
2022-10-26T14:13:28.527Z,1.43
2022-10-26T14:15:37.870Z,1.10
2022-10-26T14:17:51.838Z,1.30
2022-10-26T14:20:00.478Z,1.60
2022-10-26T14:22:09.396Z,1.57
2022-10-26T14:24:31.501Z,1.23
2022-10-26T14:26:53.055Z,1.50
2022-10-26T14:29:02.569Z,2.00
2022-10-26T14:31:18.124Z,1.60
2022-10-26T14:33:30.146Z,1.43
2022-10-26T14:35:42.119Z,1.33
2022-10-26T14:37:53.285Z,1.80
2022-10-26T14:40:03.626Z,1.40
2022-10-26T14:42:15.679Z,1.43
2022-10-26T14:44:25.025Z,1.80
2022-10-26T14:46:38.603Z,1.93
2022-10-26T14:48:53.120Z,1.20
2022-10-26T14:51:02.292Z,1.60
2022-10-26T14:53:15.866Z,1.13
2022-10-26T14:55:25.953Z,1.37
2022-10-26T14:57:35.537Z,1.10
2022-10-26T14:59:45.648Z,1.10
2022-10-26T15:01:55.562Z,1.17
2022-10-26T15:04:05.179Z,0.90
2022-10-26T15:06:32.592Z,1.00
2022-10-26T15:08:56.195Z,1.00
2022-10-26T15:11:10.640Z,1.50
2022-10-26T15:13:24.681Z,0.90
2022-10-26T15:15:34.434Z,0.80
2022-10-26T15:17:45.843Z,1.00
2022-10-26T15:19:54.316Z,1.30
2022-10-26T15:22:03.189Z,1.13
2022-10-26T15:24:19.412Z,1.40
2022-10-26T15:26:30.875Z,1.20
2022-10-26T15:28:42.591Z,1.40
2022-10-26T15:31:01.373Z,1.23
2022-10-26T15:33:20.176Z,1.00
2022-10-26T15:35:30.149Z,1.40
2022-10-26T15:37:38.694Z,1.30
2022-10-26T15:39:47.197Z,1.23
2022-10-26T15:41:57.019Z,1.37
2022-10-26T15:44:07.091Z,1.03
2022-10-26T15:46:15.515Z,1.30
2022-10-26T15:48:27.187Z,1.30
2022-10-26T15:50:37.821Z,1.00
2022-10-26T15:52:49.498Z,1.20
2022-10-26T15:54:58.181Z,0.90
2022-10-26T15:57:08.603Z,1.20
2022-10-26T15:59:18.616Z,1.10
2022-10-26T16:01:28.246Z,1.10
2022-10-26T16:03:36.787Z,1.50
2022-10-26T16:05:45.329Z,1.30
2022-10-26T16:07:53.910Z,1.50
2022-10-26T16:10:02.513Z,1.30
2022-10-26T16:12:13.686Z,1.20
2022-10-26T16:14:22.510Z,1.50
2022-10-26T16:16:30.983Z,1.03
2022-10-26T16:18:39.473Z,1.33
2022-10-26T16:20:48.097Z,1.57
2022-10-26T16:22:56.734Z,1.00
2022-10-26T16:25:05.475Z,1.10
2022-10-26T16:27:15.497Z,1.20
2022-10-26T16:29:24.086Z,1.00
2022-10-26T16:31:32.501Z,1.00
2022-10-26T16:33:41.009Z,1.20
2022-10-26T16:35:56.766Z,1.30
2022-10-26T16:38:05.205Z,1.07
2022-10-26T16:40:13.989Z,1.20
2022-10-26T16:42:23.762Z,0.97
2022-10-26T16:44:32.444Z,1.37
2022-10-26T16:46:40.890Z,1.30
2022-10-26T16:48:50.527Z,1.37
2022-10-26T16:50:58.935Z,1.17
2022-10-26T16:53:07.475Z,1.00
2022-10-26T16:55:16.847Z,1.00
2022-10-26T16:57:26.925Z,1.00
2022-10-26T16:59:35.747Z,1.10
2022-10-26T17:01:44.689Z,1.10
2022-10-26T17:03:54.169Z,1.23
2022-10-26T17:06:04.179Z,1.00
2022-10-26T17:08:12.661Z,1.30
2022-10-26T17:10:21.171Z,1.40
2022-10-26T17:12:31.632Z,1.40
2022-10-26T17:14:40.247Z,1.03
2022-10-26T17:16:48.712Z,1.20
2022-10-26T17:18:57.183Z,1.10
2022-10-26T17:21:05.754Z,1.33
2022-10-26T17:23:14.200Z,1.73
2022-10-26T17:25:22.823Z,1.43
2022-10-26T17:27:32.646Z,2.50
2022-10-26T17:29:41.066Z,1.70
2022-10-26T17:31:49.482Z,1.50
2022-10-26T17:33:58.440Z,1.83
2022-10-26T17:36:08.032Z,3.20
2022-10-26T17:38:16.646Z,2.10
2022-10-26T17:40:25.076Z,1.20
2022-10-26T17:42:35.134Z,1.00
2022-10-26T17:44:43.567Z,1.20
2022-10-26T17:46:51.985Z,1.10
2022-10-26T17:49:01.298Z,1.30
2022-10-26T17:51:12.014Z,1.50
2022-10-26T17:53:20.542Z,1.40
2022-10-26T17:55:31.742Z,1.40
2022-10-26T17:57:41.584Z,1.20
2022-10-26T17:59:49.999Z,0.93
2022-10-26T18:01:58.618Z,1.20
2022-10-26T18:04:07.344Z,1.83
2022-10-26T18:06:17.238Z,1.60
2022-10-26T18:08:25.871Z,2.23
2022-10-26T18:10:37.813Z,2.90
2022-10-26T18:12:48.421Z,2.50
2022-10-26T18:14:57.453Z,3.00
2022-10-26T18:17:05.933Z,1.83
2022-10-26T18:19:14.522Z,3.13
2022-10-26T18:21:23.094Z,2.60
2022-10-26T18:23:31.574Z,1.90
2022-10-26T18:25:39.974Z,3.33
2022-10-26T18:27:49.830Z,4.63
2022-10-26T18:29:58.684Z,5.60
2022-10-26T18:32:07.185Z,2.80
2022-10-26T18:34:15.741Z,2.13
2022-10-26T18:36:24.396Z,1.80
2022-10-26T18:38:32.927Z,1.73
2022-10-26T18:40:41.408Z,2.37
2022-10-26T18:42:51.346Z,1.60
2022-10-26T18:45:02.714Z,2.80
2022-10-26T18:47:11.164Z,2.40
2022-10-26T18:49:20.842Z,1.97
2022-10-26T18:51:31.534Z,1.67
2022-10-26T18:53:40.691Z,2.20
2022-10-26T18:55:49.106Z,1.50
2022-10-26T18:57:59.942Z,2.07
2022-10-26T19:00:09.088Z,2.40
2022-10-26T19:02:17.631Z,2.20
2022-10-26T19:04:26.076Z,2.47
2022-10-26T19:06:35.124Z,2.67
2022-10-26T19:08:43.820Z,2.33
2022-10-26T19:10:52.703Z,2.17
2022-10-26T19:13:05.866Z,2.63
2022-10-26T19:15:14.366Z,1.70
2022-10-26T19:17:23.574Z,2.90
2022-10-26T19:19:32.204Z,2.00
2022-10-26T19:21:40.831Z,2.50
2022-10-26T19:23:50.392Z,4.70
2022-10-26T19:25:58.829Z,3.63
2022-10-26T19:28:08.739Z,2.80
2022-10-26T19:30:17.249Z,2.47
2022-10-26T19:32:28.313Z,2.63
2022-10-26T19:34:36.773Z,2.53
2022-10-26T19:36:47.053Z,1.40
2022-10-26T19:38:56.021Z,1.50
2022-10-26T19:41:05.505Z,2.27
2022-10-26T19:43:16.877Z,1.67
2022-10-26T19:45:25.320Z,2.00
2022-10-26T19:47:33.877Z,1.80
2022-10-26T19:49:42.451Z,1.67
2022-10-26T19:51:50.917Z,1.70
2022-10-26T19:54:03.541Z,1.50
2022-10-26T19:56:13.583Z,1.60
2022-10-26T19:58:23.577Z,1.90
2022-10-26T20:00:36.594Z,1.40
2022-10-26T20:02:45.353Z,1.63
2022-10-26T20:04:53.956Z,1.57
2022-10-26T20:07:02.372Z,1.80
2022-10-26T20:09:11.220Z,1.90
2022-10-26T20:11:20.271Z,2.10
2022-10-26T20:13:30.149Z,1.73
2022-10-26T20:15:38.651Z,2.30
2022-10-26T20:17:47.061Z,1.80
2022-10-26T20:19:55.896Z,1.77
2022-10-26T20:22:04.365Z,1.90
2022-10-26T20:24:12.825Z,2.00
2022-10-26T20:26:22.571Z,2.10
2022-10-26T20:28:33.507Z,1.90
2022-10-26T20:30:42.373Z,1.83
2022-10-26T20:32:50.803Z,2.30
2022-10-26T20:34:59.231Z,1.93
2022-10-26T20:37:07.935Z,2.00
2022-10-26T20:39:16.637Z,1.80
2022-10-26T20:41:25.472Z,1.93
2022-10-26T20:43:35.739Z,2.30
2022-10-26T20:45:44.471Z,2.40
2022-10-26T20:47:54.595Z,2.60
2022-10-26T20:50:03.329Z,2.63
2022-10-26T20:52:22.047Z,2.40
2022-10-26T20:54:31.242Z,2.53
2022-10-26T20:56:41.558Z,3.20
2022-10-26T20:58:53.185Z,2.70
2022-10-26T21:01:02.310Z,2.70
2022-10-26T21:03:12.830Z,3.10
2022-10-26T21:05:22.481Z,2.97
2022-10-26T21:07:30.936Z,2.73
2022-10-26T21:09:39.365Z,3.10
2022-10-26T21:11:47.806Z,3.03
2022-10-26T21:13:57.968Z,2.90
2022-10-26T21:16:06.771Z,2.70
2022-10-26T21:18:15.386Z,2.83
2022-10-26T21:20:23.830Z,2.57
2022-10-26T21:22:32.194Z,3.00
2022-10-26T21:24:40.721Z,2.90
2022-10-26T21:26:49.239Z,2.80
2022-10-26T21:28:59.027Z,2.83
2022-10-26T21:31:08.974Z,2.40
2022-10-26T21:33:20.003Z,2.80
2022-10-26T21:35:31.661Z,2.20
2022-10-26T21:37:40.165Z,2.70
2022-10-26T21:39:48.632Z,2.27
2022-10-26T21:41:57.036Z,2.23
2022-10-26T21:44:22.102Z,2.13
2022-10-26T21:46:34.428Z,2.63
2022-10-26T21:48:42.928Z,2.20
2022-10-26T21:50:51.375Z,1.83
2022-10-26T21:52:59.953Z,1.80
2022-10-26T21:55:08.695Z,2.00
2022-10-26T21:57:17.416Z,2.47
2022-10-26T21:59:27.258Z,2.00
2022-10-26T22:01:35.857Z,2.17
2022-10-26T22:03:44.684Z,1.80
2022-10-26T22:05:53.844Z,1.97
2022-10-26T22:08:02.303Z,2.30
2022-10-26T22:10:11.469Z,2.23
2022-10-26T22:12:20.170Z,2.30
2022-10-26T22:14:29.978Z,2.33
2022-10-26T22:16:38.439Z,2.30
2022-10-26T22:18:49.157Z,2.70
2022-10-26T22:20:58.614Z,2.37
2022-10-26T22:23:07.071Z,2.37
2022-10-26T22:25:15.532Z,2.27
2022-10-26T22:27:24.001Z,2.17
2022-10-26T22:29:33.821Z,2.33
2022-10-26T22:31:42.526Z,2.20
2022-10-26T22:33:53.741Z,2.50
2022-10-26T22:36:05.699Z,2.70
2022-10-26T22:38:14.173Z,2.70
2022-10-26T22:40:22.566Z,2.20
2022-10-26T22:42:31.126Z,2.17
2022-10-26T22:44:41.028Z,2.03
2022-10-26T22:46:49.457Z,2.10
2022-10-26T22:48:58.615Z,2.17
2022-10-26T22:51:07.638Z,2.37
2022-10-26T22:53:16.240Z,1.77
2022-10-26T22:55:25.047Z,2.43
2022-10-26T22:57:33.536Z,2.30
2022-10-26T22:59:43.395Z,2.07
2022-10-26T23:01:52.011Z,2.37
2022-10-26T23:04:00.926Z,2.20
2022-10-26T23:06:10.228Z,2.40
2022-10-26T23:08:18.692Z,2.40
2022-10-26T23:10:27.230Z,2.30
2022-10-26T23:12:35.625Z,2.53
2022-10-26T23:14:45.445Z,2.30
2022-10-26T23:16:53.847Z,2.30
2022-10-26T23:19:02.266Z,2.20
2022-10-26T23:21:11.749Z,2.07
2022-10-26T23:23:23.614Z,2.40
2022-10-26T23:25:32.074Z,2.20
2022-10-26T23:27:40.737Z,2.47
2022-10-26T23:29:50.549Z,2.30
2022-10-26T23:31:59.051Z,2.30
2022-10-26T23:34:07.529Z,2.03
2022-10-26T23:36:16.302Z,2.10
2022-10-26T23:38:24.929Z,2.03
2022-10-26T23:40:33.477Z,2.40
2022-10-26T23:42:41.899Z,2.43
2022-10-26T23:44:54.949Z,2.13
2022-10-26T23:47:03.519Z,2.30
2022-10-26T23:49:12.018Z,1.93
2022-10-26T23:51:20.456Z,1.90
2022-10-26T23:53:28.984Z,2.20
2022-10-26T23:55:37.410Z,1.90
2022-10-26T23:57:45.823Z,1.77
2022-10-26T23:59:55.622Z,1.73
